Alfred, NY

2:33 PM EDT on March 28, 2015 (GMT -0400)
Ardachy Farm | | Change Station
CLOSE
Current Station
Personal Weather Station
Location: Alfred Station, NY
Elevation: 1877 ft
Nearby Weather Stations

Elev 1877 ft 42.28 °N, 77.77 °W | Updated 33 seconds ago

Overcast
Overcast
21.4 °F
Feels Like 11 °F
N
9.2
Wind Variable Wind from West
Gusts 19.0 mph

Today
High -- | Low -- °F
--% Chance of Precip.
Yesterday
High -- | Low -- °F
Precip. -- in
7:01 AM 7:32 PM
Waxing Gibbous, 64% visible
Pressure 30.09 in
Visibility 10.0 miles
Clouds Mostly Cloudy 4000 ft
Mostly Cloudy 8000 ft
Windchill 11 °F
Dew Point 1 °F
Humidity 41%
Rainfall 0.02 in
Snow Depth Not available.
UV 4 out of 12
Pollen 1.30 out of 12
Air Quality Not available.
Flu Activity Not available.
METAR KELZ 281756Z AUTO 32014G21KT 10SM BKN040 BKN080 M07/M15 A2998 RMK AO2 SLP187 60000 T10671150 11061 21100 51004

More Conditions Fewer Conditions

Pressure 30.09 in
Visibility 10.0 miles
Clouds Mostly Cloudy 4000 ft
Mostly Cloudy 8000 ft
Windchill 11 °F
Dew Point 1 °F
Humidity 41%
Rainfall 0.02 in
Snow Depth Not available.
UV 4 out of 12
Pollen 1.30 out of 12
Air Quality Not available.
Flu Activity Not available.
METAR KELZ 281756Z AUTO 32014G21KT 10SM BKN040 BKN080 M07/M15 A2998 RMK AO2 SLP187 60000 T10671150 11061 21100 51004

More Conditions Fewer Conditions

10-Day Weather Forecast

Almanac

Astronomy

Mar. 28, 2015 Rise Set
Actual Time
Civil Twilight
Nautical Twilight
Astronomical Twilight
Moon
Length of Visible Light
Length of Day
Tomorrow will be .
, % of the Moon is Illuminated

Today's Extremes

State Highs State Lows

Community

WunderPhotos

Upload Photos

1,809,055 photos uploaded!

WunderBlogs® & News

Nearby

Air Quality

  Air Quality AQ Index Pollutant
Not available.

Snow Depth

Station Depth Elevation

Earthquake Activity

City Distance Mag. Time & Date
Minimum magnitude displayed is 2.5.

Coastal Water Temperatures

Place Temperature

Stations

Nearby Weather Stations

Station Location Temp. Windchill Dew Point Humidity Wind Precip. Elev Updated Type